sensor_id;sensor_type;location;lat;lon;timestamp;P1;durP1;ratioP1;P2;durP2;ratioP2
4210;SDS011;2119;48.828;12.396;2023-04-06T00:03:00;4.00;;;3.70;;
4210;SDS011;2119;48.828;12.396;2023-04-06T00:08:00;6.35;;;4.10;;
4210;SDS011;2119;48.828;12.396;2023-04-06T00:13:00;5.70;;;4.63;;
4210;SDS011;2119;48.828;12.396;2023-04-06T00:18:01;4.75;;;4.30;;
4210;SDS011;2119;48.828;12.396;2023-04-06T00:23:01;5.30;;;4.47;;
4210;SDS011;2119;48.828;12.396;2023-04-06T00:28:01;5.85;;;4.50;;
4210;SDS011;2119;48.828;12.396;2023-04-06T00:33:03;5.53;;;4.87;;
4210;SDS011;2119;48.828;12.396;2023-04-06T00:38:03;5.00;;;4.50;;
4210;SDS011;2119;48.828;12.396;2023-04-06T00:43:03;7.47;;;5.55;;
4210;SDS011;2119;48.828;12.396;2023-04-06T00:48:03;5.53;;;4.60;;
4210;SDS011;2119;48.828;12.396;2023-04-06T00:53:04;5.13;;;4.63;;
4210;SDS011;2119;48.828;12.396;2023-04-06T00:58:05;8.70;;;6.10;;
4210;SDS011;2119;48.828;12.396;2023-04-06T01:03:05;5.70;;;5.20;;
4210;SDS011;2119;48.828;12.396;2023-04-06T01:08:06;6.30;;;5.17;;
4210;SDS011;2119;48.828;12.396;2023-04-06T01:13:07;9.07;;;5.83;;
4210;SDS011;2119;48.828;12.396;2023-04-06T01:18:08;7.60;;;5.63;;
4210;SDS011;2119;48.828;12.396;2023-04-06T01:23:10;11.30;;;7.40;;
4210;SDS011;2119;48.828;12.396;2023-04-06T01:28:10;9.85;;;6.22;;
4210;SDS011;2119;48.828;12.396;2023-04-06T01:33:10;6.27;;;5.63;;
4210;SDS011;2119;48.828;12.396;2023-04-06T01:38:11;6.30;;;5.60;;
4210;SDS011;2119;48.828;12.396;2023-04-06T01:43:11;6.53;;;5.90;;
4210;SDS011;2119;48.828;12.396;2023-04-06T01:48:11;6.87;;;5.33;;
4210;SDS011;2119;48.828;12.396;2023-04-06T01:53:12;7.60;;;5.43;;
4210;SDS011;2119;48.828;12.396;2023-04-06T01:58:12;6.85;;;5.75;;
4210;SDS011;2119;48.828;12.396;2023-04-06T02:03:12;9.00;;;7.15;;
4210;SDS011;2119;48.828;12.396;2023-04-06T02:08:14;8.10;;;6.10;;
4210;SDS011;2119;48.828;12.396;2023-04-06T02:13:14;8.07;;;6.30;;
4210;SDS011;2119;48.828;12.396;2023-04-06T02:18:15;9.23;;;6.87;;
4210;SDS011;2119;48.828;12.396;2023-04-06T02:23:17;8.83;;;5.70;;
4210;SDS011;2119;48.828;12.396;2023-04-06T02:28:17;8.65;;;6.30;;
4210;SDS011;2119;48.828;12.396;2023-04-06T02:33:17;7.50;;;5.20;;
4210;SDS011;2119;48.828;12.396;2023-04-06T02:38:18;6.13;;;5.20;;
4210;SDS011;2119;48.828;12.396;2023-04-06T02:43:18;5.75;;;5.10;;
4210;SDS011;2119;48.828;12.396;2023-04-06T02:48:19;6.03;;;5.53;;
4210;SDS011;2119;48.828;12.396;2023-04-06T02:53:19;7.00;;;5.68;;
4210;SDS011;2119;48.828;12.396;2023-04-06T02:58:19;6.72;;;6.03;;
4210;SDS011;2119;48.828;12.396;2023-04-06T03:03:19;7.30;;;5.87;;
4210;SDS011;2119;48.828;12.396;2023-04-06T03:08:20;8.60;;;5.87;;
4210;SDS011;2119;48.828;12.396;2023-04-06T03:13:20;9.60;;;7.53;;
4210;SDS011;2119;48.828;12.396;2023-04-06T03:18:21;10.33;;;7.60;;
4210;SDS011;2119;48.828;12.396;2023-04-06T03:23:22;7.87;;;6.50;;
4210;SDS011;2119;48.828;12.396;2023-04-06T03:28:23;6.22;;;5.63;;
4210;SDS011;2119;48.828;12.396;2023-04-06T03:33:23;8.02;;;7.18;;
4210;SDS011;2119;48.828;12.396;2023-04-06T03:38:23;14.05;;;8.40;;
4210;SDS011;2119;48.828;12.396;2023-04-06T03:43:23;11.17;;;8.40;;
4210;SDS011;2119;48.828;12.396;2023-04-06T03:48:24;7.90;;;6.05;;
4210;SDS011;2119;48.828;12.396;2023-04-06T03:53:24;8.60;;;6.72;;
4210;SDS011;2119;48.828;12.396;2023-04-06T03:58:25;7.80;;;5.53;;
4210;SDS011;2119;48.828;12.396;2023-04-06T04:03:25;6.72;;;5.90;;
4210;SDS011;2119;48.828;12.396;2023-04-06T04:08:27;8.07;;;6.50;;
4210;SDS011;2119;48.828;12.396;2023-04-06T04:13:27;7.63;;;6.05;;
4210;SDS011;2119;48.828;12.396;2023-04-06T04:18:27;6.47;;;5.88;;
4210;SDS011;2119;48.828;12.396;2023-04-06T04:23:28;8.43;;;6.63;;
4210;SDS011;2119;48.828;12.396;2023-04-06T04:28:28;8.80;;;7.90;;
4210;SDS011;2119;48.828;12.396;2023-04-06T04:33:28;7.30;;;5.60;;
4210;SDS011;2119;48.828;12.396;2023-04-06T04:38:28;10.52;;;7.03;;
4210;SDS011;2119;48.828;12.396;2023-04-06T04:43:30;11.57;;;8.90;;
4210;SDS011;2119;48.828;12.396;2023-04-06T04:48:30;6.57;;;5.97;;
4210;SDS011;2119;48.828;12.396;2023-04-06T04:53:30;11.77;;;6.70;;
4210;SDS011;2119;48.828;12.396;2023-04-06T04:58:31;12.15;;;8.75;;
4210;SDS011;2119;48.828;12.396;2023-04-06T05:03:32;16.08;;;11.65;;
4210;SDS011;2119;48.828;12.396;2023-04-06T05:08:32;12.60;;;10.93;;
4210;SDS011;2119;48.828;12.396;2023-04-06T05:13:33;9.60;;;8.37;;
4210;SDS011;2119;48.828;12.396;2023-04-06T05:18:33;13.70;;;9.00;;
4210;SDS011;2119;48.828;12.396;2023-04-06T05:23:33;13.47;;;8.03;;
4210;SDS011;2119;48.828;12.396;2023-04-06T05:28:33;9.30;;;7.97;;
4210;SDS011;2119;48.828;12.396;2023-04-06T05:33:35;11.17;;;7.63;;
4210;SDS011;2119;48.828;12.396;2023-04-06T05:38:35;15.65;;;8.20;;
4210;SDS011;2119;48.828;12.396;2023-04-06T05:43:36;18.25;;;8.35;;
4210;SDS011;2119;48.828;12.396;2023-04-06T05:48:36;20.37;;;10.70;;
4210;SDS011;2119;48.828;12.396;2023-04-06T05:53:36;13.43;;;10.23;;
4210;SDS011;2119;48.828;12.396;2023-04-06T05:58:37;15.15;;;10.95;;
4210;SDS011;2119;48.828;12.396;2023-04-06T06:03:37;25.97;;;14.57;;
4210;SDS011;2119;48.828;12.396;2023-04-06T06:08:37;29.05;;;15.48;;
4210;SDS011;2119;48.828;12.396;2023-04-06T06:13:37;13.52;;;9.50;;
4210;SDS011;2119;48.828;12.396;2023-04-06T06:18:38;11.85;;;8.98;;
4210;SDS011;2119;48.828;12.396;2023-04-06T06:23:38;18.33;;;11.53;;
4210;SDS011;2119;48.828;12.396;2023-04-06T06:28:38;15.43;;;10.10;;
4210;SDS011;2119;48.828;12.396;2023-04-06T06:33:39;18.42;;;11.63;;
4210;SDS011;2119;48.828;12.396;2023-04-06T06:38:39;16.67;;;11.38;;
4210;SDS011;2119;48.828;12.396;2023-04-06T06:43:39;15.30;;;10.10;;
4210;SDS011;2119;48.828;12.396;2023-04-06T06:48:39;16.80;;;11.70;;
4210;SDS011;2119;48.828;12.396;2023-04-06T06:53:40;14.27;;;10.65;;
4210;SDS011;2119;48.828;12.396;2023-04-06T06:58:40;14.48;;;10.20;;
4210;SDS011;2119;48.828;12.396;2023-04-06T07:03:40;20.83;;;10.10;;
4210;SDS011;2119;48.828;12.396;2023-04-06T07:08:41;13.43;;;7.70;;
4210;SDS011;2119;48.828;12.396;2023-04-06T07:13:41;9.35;;;7.00;;
4210;SDS011;2119;48.828;12.396;2023-04-06T07:18:42;7.80;;;7.00;;
4210;SDS011;2119;48.828;12.396;2023-04-06T07:23:42;9.23;;;7.55;;
4210;SDS011;2119;48.828;12.396;2023-04-06T07:28:42;7.47;;;6.80;;
4210;SDS011;2119;48.828;12.396;2023-04-06T07:33:42;10.07;;;7.30;;
4210;SDS011;2119;48.828;12.396;2023-04-06T07:38:43;12.00;;;6.90;;
4210;SDS011;2119;48.828;12.396;2023-04-06T07:43:43;8.05;;;5.97;;
4210;SDS011;2119;48.828;12.396;2023-04-06T07:48:43;7.60;;;6.80;;
4210;SDS011;2119;48.828;12.396;2023-04-06T07:53:44;8.05;;;6.60;;
4210;SDS011;2119;48.828;12.396;2023-04-06T07:58:44;8.00;;;7.00;;
4210;SDS011;2119;48.828;12.396;2023-04-06T08:03:44;9.10;;;6.80;;
4210;SDS011;2119;48.828;12.396;2023-04-06T08:08:45;9.55;;;7.00;;
4210;SDS011;2119;48.828;12.396;2023-04-06T08:13:45;7.85;;;7.00;;
4210;SDS011;2119;48.828;12.396;2023-04-06T08:18:45;9.45;;;6.65;;
4210;SDS011;2119;48.828;12.396;2023-04-06T08:23:45;6.90;;;6.30;;
4210;SDS011;2119;48.828;12.396;2023-04-06T08:28:46;14.93;;;6.80;;
4210;SDS011;2119;48.828;12.396;2023-04-06T08:33:46;12.47;;;6.90;;
4210;SDS011;2119;48.828;12.396;2023-04-06T08:38:46;7.13;;;6.18;;
4210;SDS011;2119;48.828;12.396;2023-04-06T08:43:47;9.50;;;7.03;;
4210;SDS011;2119;48.828;12.396;2023-04-06T08:48:48;9.50;;;6.17;;
4210;SDS011;2119;48.828;12.396;2023-04-06T08:53:49;7.13;;;6.23;;
4210;SDS011;2119;48.828;12.396;2023-04-06T08:58:50;7.28;;;6.10;;
4210;SDS011;2119;48.828;12.396;2023-04-06T09:03:51;7.10;;;5.97;;
4210;SDS011;2119;48.828;12.396;2023-04-06T09:08:52;7.73;;;5.73;;
4210;SDS011;2119;48.828;12.396;2023-04-06T09:13:53;6.00;;;5.40;;
4210;SDS011;2119;48.828;12.396;2023-04-06T09:18:54;12.60;;;6.47;;
4210;SDS011;2119;48.828;12.396;2023-04-06T09:23:59;9.20;;;6.37;;
4210;SDS011;2119;48.828;12.396;2023-04-06T09:29:00;6.43;;;5.93;;
4210;SDS011;2119;48.828;12.396;2023-04-06T09:34:01;8.03;;;6.23;;
4210;SDS011;2119;48.828;12.396;2023-04-06T09:39:02;6.03;;;5.50;;
4210;SDS011;2119;48.828;12.396;2023-04-06T09:49:03;7.13;;;6.30;;
4210;SDS011;2119;48.828;12.396;2023-04-06T09:54:03;6.72;;;6.07;;
4210;SDS011;2119;48.828;12.396;2023-04-06T10:04:43;10.93;;;6.83;;
4210;SDS011;2119;48.828;12.396;2023-04-06T10:09:44;7.20;;;6.47;;
4210;SDS011;2119;48.828;12.396;2023-04-06T10:14:45;8.10;;;7.30;;
4210;SDS011;2119;48.828;12.396;2023-04-06T10:20:05;7.70;;;6.93;;
4210;SDS011;2119;48.828;12.396;2023-04-06T10:25:08;7.37;;;6.67;;
4210;SDS011;2119;48.828;12.396;2023-04-06T10:30:08;7.00;;;6.30;;
4210;SDS011;2119;48.828;12.396;2023-04-06T10:35:09;12.43;;;7.00;;
4210;SDS011;2119;48.828;12.396;2023-04-06T10:40:25;7.87;;;7.03;;
4210;SDS011;2119;48.828;12.396;2023-04-06T10:45:26;8.10;;;7.40;;
4210;SDS011;2119;48.828;12.396;2023-04-06T10:50:30;8.17;;;7.47;;
4210;SDS011;2119;48.828;12.396;2023-04-06T10:55:32;9.10;;;7.50;;
4210;SDS011;2119;48.828;12.396;2023-04-06T11:00:32;7.27;;;6.57;;
4210;SDS011;2119;48.828;12.396;2023-04-06T11:05:33;7.93;;;7.18;;
4210;SDS011;2119;48.828;12.396;2023-04-06T11:10:35;7.43;;;6.73;;
4210;SDS011;2119;48.828;12.396;2023-04-06T11:15:35;9.20;;;7.80;;
4210;SDS011;2119;48.828;12.396;2023-04-06T11:20:35;10.05;;;8.57;;
4210;SDS011;2119;48.828;12.396;2023-04-06T11:25:36;11.98;;;8.68;;
4210;SDS011;2119;48.828;12.396;2023-04-06T11:30:36;9.70;;;8.57;;
4210;SDS011;2119;48.828;12.396;2023-04-06T11:35:36;7.60;;;6.90;;
4210;SDS011;2119;48.828;12.396;2023-04-06T11:40:37;8.50;;;7.57;;
4210;SDS011;2119;48.828;12.396;2023-04-06T11:45:46;10.35;;;8.10;;
4210;SDS011;2119;48.828;12.396;2023-04-06T11:50:46;9.97;;;8.00;;
4210;SDS011;2119;48.828;12.396;2023-04-06T11:55:47;8.30;;;7.30;;
4210;SDS011;2119;48.828;12.396;2023-04-06T12:00:47;8.70;;;8.00;;
4210;SDS011;2119;48.828;12.396;2023-04-06T12:05:48;8.55;;;7.85;;
4210;SDS011;2119;48.828;12.396;2023-04-06T12:10:49;12.30;;;10.10;;
4210;SDS011;2119;48.828;12.396;2023-04-06T12:15:49;14.27;;;8.20;;
4210;SDS011;2119;48.828;12.396;2023-04-06T12:20:50;9.47;;;8.27;;
4210;SDS011;2119;48.828;12.396;2023-04-06T12:25:50;9.60;;;8.00;;
4210;SDS011;2119;48.828;12.396;2023-04-06T12:30:51;9.47;;;8.53;;
4210;SDS011;2119;48.828;12.396;2023-04-06T12:35:51;8.70;;;7.80;;
4210;SDS011;2119;48.828;12.396;2023-04-06T12:40:52;9.70;;;8.05;;
4210;SDS011;2119;48.828;12.396;2023-04-06T12:45:52;8.93;;;8.15;;
4210;SDS011;2119;48.828;12.396;2023-04-06T12:50:59;8.82;;;8.05;;
4210;SDS011;2119;48.828;12.396;2023-04-06T12:56:01;9.17;;;8.30;;
4210;SDS011;2119;48.828;12.396;2023-04-06T13:01:05;8.40;;;7.60;;
4210;SDS011;2119;48.828;12.396;2023-04-06T13:06:05;7.80;;;7.17;;
4210;SDS011;2119;48.828;12.396;2023-04-06T13:11:06;21.87;;;9.20;;
4210;SDS011;2119;48.828;12.396;2023-04-06T13:16:09;12.77;;;8.37;;
4210;SDS011;2119;48.828;12.396;2023-04-06T13:21:09;12.83;;;8.70;;
4210;SDS011;2119;48.828;12.396;2023-04-06T13:26:09;10.00;;;9.00;;
4210;SDS011;2119;48.828;12.396;2023-04-06T13:31:09;9.35;;;8.02;;
4210;SDS011;2119;48.828;12.396;2023-04-06T13:36:10;8.80;;;7.97;;
4210;SDS011;2119;48.828;12.396;2023-04-06T13:41:16;9.15;;;8.35;;
4210;SDS011;2119;48.828;12.396;2023-04-06T13:46:17;9.13;;;8.33;;
4210;SDS011;2119;48.828;12.396;2023-04-06T13:51:20;9.67;;;8.10;;
4210;SDS011;2119;48.828;12.396;2023-04-06T13:56:21;9.40;;;8.40;;
4210;SDS011;2119;48.828;12.396;2023-04-06T14:01:21;9.73;;;8.20;;
4210;SDS011;2119;48.828;12.396;2023-04-06T14:06:21;9.37;;;8.57;;
4210;SDS011;2119;48.828;12.396;2023-04-06T14:11:21;9.07;;;8.02;;
4210;SDS011;2119;48.828;12.396;2023-04-06T14:16:23;9.70;;;8.70;;
4210;SDS011;2119;48.828;12.396;2023-04-06T14:21:23;9.80;;;8.73;;
4210;SDS011;2119;48.828;12.396;2023-04-06T14:26:23;10.23;;;8.90;;
4210;SDS011;2119;48.828;12.396;2023-04-06T14:31:24;9.47;;;8.37;;
4210;SDS011;2119;48.828;12.396;2023-04-06T14:36:24;14.90;;;8.82;;
4210;SDS011;2119;48.828;12.396;2023-04-06T14:41:28;10.67;;;8.37;;
4210;SDS011;2119;48.828;12.396;2023-04-06T14:46:28;8.80;;;8.00;;
4210;SDS011;2119;48.828;12.396;2023-04-06T14:51:29;9.10;;;7.70;;
4210;SDS011;2119;48.828;12.396;2023-04-06T14:56:29;9.20;;;8.30;;
4210;SDS011;2119;48.828;12.396;2023-04-06T15:01:33;8.93;;;8.13;;
4210;SDS011;2119;48.828;12.396;2023-04-06T15:06:34;10.00;;;7.50;;
4210;SDS011;2119;48.828;12.396;2023-04-06T15:11:34;9.33;;;8.50;;
4210;SDS011;2119;48.828;12.396;2023-04-06T15:16:34;16.40;;;7.73;;
4210;SDS011;2119;48.828;12.396;2023-04-06T15:21:35;10.02;;;9.07;;
4210;SDS011;2119;48.828;12.396;2023-04-06T15:26:35;9.07;;;8.27;;
4210;SDS011;2119;48.828;12.396;2023-04-06T15:31:36;10.33;;;8.60;;
4210;SDS011;2119;48.828;12.396;2023-04-06T15:36:38;12.13;;;8.00;;
4210;SDS011;2119;48.828;12.396;2023-04-06T15:41:38;8.85;;;7.95;;
4210;SDS011;2119;48.828;12.396;2023-04-06T15:46:38;10.93;;;8.47;;
4210;SDS011;2119;48.828;12.396;2023-04-06T15:51:38;10.93;;;9.35;;
4210;SDS011;2119;48.828;12.396;2023-04-06T15:56:39;9.00;;;8.20;;
4210;SDS011;2119;48.828;12.396;2023-04-06T16:01:39;9.73;;;8.83;;
4210;SDS011;2119;48.828;12.396;2023-04-06T16:06:42;9.27;;;8.40;;
4210;SDS011;2119;48.828;12.396;2023-04-06T16:11:42;10.80;;;9.70;;
4210;SDS011;2119;48.828;12.396;2023-04-06T16:16:43;15.67;;;11.90;;
4210;SDS011;2119;48.828;12.396;2023-04-06T16:21:43;13.33;;;10.13;;
4210;SDS011;2119;48.828;12.396;2023-04-06T16:26:43;9.35;;;8.55;;
4210;SDS011;2119;48.828;12.396;2023-04-06T16:31:44;9.47;;;8.10;;
4210;SDS011;2119;48.828;12.396;2023-04-06T16:36:47;9.77;;;7.40;;
4210;SDS011;2119;48.828;12.396;2023-04-06T16:41:47;9.77;;;8.77;;
4210;SDS011;2119;48.828;12.396;2023-04-06T16:46:47;8.93;;;8.13;;
4210;SDS011;2119;48.828;12.396;2023-04-06T16:51:47;8.55;;;7.88;;
4210;SDS011;2119;48.828;12.396;2023-04-06T16:56:49;9.40;;;8.43;;
4210;SDS011;2119;48.828;12.396;2023-04-06T17:01:49;9.33;;;8.43;;
4210;SDS011;2119;48.828;12.396;2023-04-06T17:06:50;8.93;;;8.10;;
4210;SDS011;2119;48.828;12.396;2023-04-06T17:11:50;8.85;;;8.05;;
4210;SDS011;2119;48.828;12.396;2023-04-06T17:16:50;10.50;;;8.35;;
4210;SDS011;2119;48.828;12.396;2023-04-06T17:21:50;8.17;;;7.40;;
4210;SDS011;2119;48.828;12.396;2023-04-06T17:26:51;10.43;;;9.38;;
4210;SDS011;2119;48.828;12.396;2023-04-06T17:31:51;11.25;;;10.20;;
4210;SDS011;2119;48.828;12.396;2023-04-06T17:36:51;12.13;;;9.25;;
4210;SDS011;2119;48.828;12.396;2023-04-06T17:41:51;11.55;;;9.98;;
4210;SDS011;2119;48.828;12.396;2023-04-06T17:46:52;10.10;;;9.10;;
4210;SDS011;2119;48.828;12.396;2023-04-06T17:51:52;17.77;;;9.20;;
4210;SDS011;2119;48.828;12.396;2023-04-06T17:56:53;10.23;;;9.10;;
4210;SDS011;2119;48.828;12.396;2023-04-06T18:01:53;19.83;;;13.37;;
4210;SDS011;2119;48.828;12.396;2023-04-06T18:06:54;32.35;;;26.30;;
4210;SDS011;2119;48.828;12.396;2023-04-06T18:11:54;24.75;;;19.95;;
4210;SDS011;2119;48.828;12.396;2023-04-06T18:16:55;29.30;;;21.30;;
4210;SDS011;2119;48.828;12.396;2023-04-06T18:21:57;21.55;;;15.35;;
4210;SDS011;2119;48.828;12.396;2023-04-06T18:26:57;14.90;;;13.20;;
4210;SDS011;2119;48.828;12.396;2023-04-06T18:31:59;26.30;;;17.00;;
4210;SDS011;2119;48.828;12.396;2023-04-06T18:36:59;19.17;;;13.47;;
4210;SDS011;2119;48.828;12.396;2023-04-06T18:42:00;11.33;;;10.13;;
4210;SDS011;2119;48.828;12.396;2023-04-06T18:47:01;10.97;;;9.83;;
4210;SDS011;2119;48.828;12.396;2023-04-06T18:52:05;12.20;;;11.00;;
4210;SDS011;2119;48.828;12.396;2023-04-06T18:57:05;13.63;;;10.83;;
4210;SDS011;2119;48.828;12.396;2023-04-06T19:02:05;14.50;;;10.67;;
4210;SDS011;2119;48.828;12.396;2023-04-06T19:07:06;12.25;;;11.00;;
4210;SDS011;2119;48.828;12.396;2023-04-06T19:12:06;18.55;;;14.15;;
4210;SDS011;2119;48.828;12.396;2023-04-06T19:17:06;23.55;;;17.35;;
4210;SDS011;2119;48.828;12.396;2023-04-06T19:22:08;25.23;;;18.55;;
4210;SDS011;2119;48.828;12.396;2023-04-06T19:27:09;11.10;;;10.00;;
4210;SDS011;2119;48.828;12.396;2023-04-06T19:32:10;12.80;;;11.40;;
4210;SDS011;2119;48.828;12.396;2023-04-06T19:37:10;16.87;;;10.83;;
4210;SDS011;2119;48.828;12.396;2023-04-06T19:42:10;13.05;;;10.20;;
4210;SDS011;2119;48.828;12.396;2023-04-06T19:47:11;11.10;;;9.60;;
4210;SDS011;2119;48.828;12.396;2023-04-06T19:52:14;18.00;;;12.67;;
4210;SDS011;2119;48.828;12.396;2023-04-06T19:57:15;15.50;;;12.17;;
4210;SDS011;2119;48.828;12.396;2023-04-06T20:02:15;15.18;;;12.20;;
4210;SDS011;2119;48.828;12.396;2023-04-06T20:07:15;13.48;;;10.88;;
4210;SDS011;2119;48.828;12.396;2023-04-06T20:12:15;13.47;;;9.83;;
4210;SDS011;2119;48.828;12.396;2023-04-06T20:17:16;13.53;;;10.50;;
4210;SDS011;2119;48.828;12.396;2023-04-06T20:22:16;12.55;;;9.85;;
4210;SDS011;2119;48.828;12.396;2023-04-06T20:27:16;10.33;;;9.27;;
4210;SDS011;2119;48.828;12.396;2023-04-06T20:32:17;13.00;;;10.30;;
4210;SDS011;2119;48.828;12.396;2023-04-06T20:37:21;11.63;;;10.40;;
4210;SDS011;2119;48.828;12.396;2023-04-06T20:42:21;13.97;;;10.83;;
4210;SDS011;2119;48.828;12.396;2023-04-06T20:47:22;13.67;;;10.83;;
4210;SDS011;2119;48.828;12.396;2023-04-06T20:52:23;12.95;;;9.43;;
4210;SDS011;2119;48.828;12.396;2023-04-06T20:57:23;14.07;;;10.30;;
4210;SDS011;2119;48.828;12.396;2023-04-06T21:02:23;12.53;;;10.60;;
4210;SDS011;2119;48.828;12.396;2023-04-06T21:07:24;11.95;;;9.65;;
4210;SDS011;2119;48.828;12.396;2023-04-06T21:12:24;12.13;;;8.60;;
4210;SDS011;2119;48.828;12.396;2023-04-06T21:17:25;14.30;;;10.67;;
4210;SDS011;2119;48.828;12.396;2023-04-06T21:22:26;12.37;;;9.80;;
4210;SDS011;2119;48.828;12.396;2023-04-06T21:27:27;13.63;;;10.87;;
4210;SDS011;2119;48.828;12.396;2023-04-06T21:32:27;12.02;;;10.52;;
4210;SDS011;2119;48.828;12.396;2023-04-06T21:37:27;11.90;;;8.90;;
4210;SDS011;2119;48.828;12.396;2023-04-06T21:42:27;8.63;;;7.73;;
4210;SDS011;2119;48.828;12.396;2023-04-06T21:47:28;13.40;;;9.57;;
4210;SDS011;2119;48.828;12.396;2023-04-06T21:52:28;13.80;;;11.25;;
4210;SDS011;2119;48.828;12.396;2023-04-06T21:57:28;11.10;;;9.90;;
4210;SDS011;2119;48.828;12.396;2023-04-06T22:02:28;15.98;;;10.88;;
4210;SDS011;2119;48.828;12.396;2023-04-06T22:07:29;14.35;;;9.43;;
4210;SDS011;2119;48.828;12.396;2023-04-06T22:12:29;14.20;;;11.50;;
4210;SDS011;2119;48.828;12.396;2023-04-06T22:17:30;16.33;;;10.57;;
4210;SDS011;2119;48.828;12.396;2023-04-06T22:22:30;16.83;;;12.30;;
4210;SDS011;2119;48.828;12.396;2023-04-06T22:27:30;16.60;;;11.00;;
4210;SDS011;2119;48.828;12.396;2023-04-06T22:32:31;10.93;;;9.23;;
4210;SDS011;2119;48.828;12.396;2023-04-06T22:37:31;16.52;;;10.82;;
4210;SDS011;2119;48.828;12.396;2023-04-06T22:42:31;15.47;;;11.13;;
4210;SDS011;2119;48.828;12.396;2023-04-06T22:47:32;16.52;;;10.55;;
4210;SDS011;2119;48.828;12.396;2023-04-06T22:52:32;12.27;;;9.90;;
4210;SDS011;2119;48.828;12.396;2023-04-06T22:57:32;15.65;;;11.63;;
4210;SDS011;2119;48.828;12.396;2023-04-06T23:02:33;15.15;;;10.73;;
4210;SDS011;2119;48.828;12.396;2023-04-06T23:07:34;14.53;;;10.40;;
4210;SDS011;2119;48.828;12.396;2023-04-06T23:12:34;16.23;;;10.60;;
4210;SDS011;2119;48.828;12.396;2023-04-06T23:17:35;14.75;;;10.50;;
4210;SDS011;2119;48.828;12.396;2023-04-06T23:22:35;15.70;;;10.40;;
4210;SDS011;2119;48.828;12.396;2023-04-06T23:27:35;15.15;;;10.60;;
4210;SDS011;2119;48.828;12.396;2023-04-06T23:32:36;15.57;;;10.50;;
4210;SDS011;2119;48.828;12.396;2023-04-06T23:37:36;11.88;;;9.95;;
4210;SDS011;2119;48.828;12.396;2023-04-06T23:42:36;18.02;;;11.30;;
4210;SDS011;2119;48.828;12.396;2023-04-06T23:47:36;16.52;;;10.30;;
4210;SDS011;2119;48.828;12.396;2023-04-06T23:52:36;13.07;;;9.30;;
4210;SDS011;2119;48.828;12.396;2023-04-06T23:57:37;13.85;;;9.45;;
